RJOHRJOO

Guest
Details From RJOH - MIHO
To RJOO - OSAKA INTL
Flight Number -
Tags generated
Created
Modified
Stats Distance 116 nm / 215 km
Max Altitude 8,300 ft / 2,530 m
Waypoints 3
Social Downloads 1
Likes 0
Share VATSIM

Download

Looking for another format? Having issues loading an existing format? Contact us
Advertisement - Login to hide

Notes

Basic altitude profile: - Ascent Rate: 2500ft/min - Ascent Speed: 250kts - Cruise Altitude: 18000ft - Cruise Speed: 420kts - Descent Rate: 1500ft/min - Descent Speed: 250kts Options: - Use NATs: yes - Use PACOTS: yes - Use low airways: no - Use high airways: yes

Route

RJOH KAMMY RJOO

ID Type Via Altitude Latitude Longitude Leg Dist Tot Dist Heading (true) Name
O RJOH APT - 0 ft / 0 m 35.49147˚ 133.23572˚ - 0 nm - MIHO
KAMMY FIX - 8,300 ft / 2,530 m 34.99101˚ 134.68853˚ 77 nm 77 nm 112° / 113° -
O RJOO APT - 0 ft / 0 m 34.78560˚ 135.43802˚ 38 nm 116 nm 108° / 109° OSAKA INTL

Altitude Profile

Advertisement - Login to hide

RJOH

Details ICAO RJOH (YGJ)
Name MIHO
Region Japan
Timezone Asia/Tokyo (UTC+9.0)
Stats Elevation 20 ft / 6 m (AMSL)
Location 35.491467° 133.235719°
Runways 1
Magnetic Variation 8.018° W

METAR

RJOH 130900Z 31010KT 9999 -SHSN FEW005 SCT020 BKN030 FEW030CB 03/M02 Q1023

Decode

TAF

TAF AMD RJOH 130641Z 1306/1412 28015KT 8000 -SHSN FEW005 SCT020 BKN030 TEMPO 1306/1312 3000 -SHSNGS FEW005 SCT020 BKN030 FEW030CB BECMG 1312/1314 36007KT BECMG 1409/1412 18005KT

Decode

Departure Runways

ID Width Length Bearing (true) Bearing (mag) Surface Threshold Offset Overrun Length
07 148 ft / 45 m 6,558 ft / 1,999 m 63.80° 71.82° Asphalt 0 ft / 0 m 200 ft / 61 m
25 148 ft / 45 m 6,558 ft / 1,999 m 243.81° 251.83° Asphalt 0 ft / 0 m 200 ft / 61 m

RJOO

Details ICAO RJOO (ITM)
Name OSAKA INTL
Region Japan
Timezone Asia/Tokyo (UTC+9.0)
Stats Elevation 50 ft / 15 m (AMSL)
Location 34.785603° 135.438019°
Runways 2
Magnetic Variation 7.678° W

METAR

RJOO 130900Z 33012KT 9999 FEW025 BKN050 BKN070 06/M05 Q1021 RMK 2CU025 5SC050 6AC070 A3016

Decode

TAF

TAF RJOO 130506Z 1306/1412 32008KT 9999 FEW025 BKN045

Decode

Destination Runways

ID Width Length Bearing (true) Bearing (mag) Surface Threshold Offset Overrun Length
14L 150 ft / 46 m 5,999 ft / 1,829 m 135.13° 142.81° Asphalt 0 ft / 0 m 678 ft / 207 m
14R 200 ft / 61 m 9,846 ft / 3,001 m 135.13° 142.81° Concrete 0 ft / 0 m 240 ft / 73 m
32L 200 ft / 61 m 9,846 ft / 3,001 m 315.15° 322.83° Concrete 0 ft / 0 m 249 ft / 76 m
32R 150 ft / 46 m 5,999 ft / 1,829 m 315.14° 322.82° Asphalt 0 ft / 0 m 571 ft / 174 m

Approach Navaids

Runway Type Ident Frequency Range Bearing (true) Bearing (mag) Slope Elevation
32L Localiser ISK 110.10 MHz 18 nm / 33 km 315.13° 322.81° - 50 ft / 15 m (AMSL)
32L Glidescope ISK 110.10 MHz 10 nm / 19 km 315.14° 322.82° 3.00° 54 ft / 16 m (AMSL)

Popular Alternatives